createdAt,value
2022-08-25T08:34:26.433Z,11.25
2022-08-25T08:35:27.448Z,11.25
2022-08-25T08:36:27.405Z,11.25
2022-08-25T08:37:27.078Z,11.25
2022-08-25T08:38:27.409Z,11.25
2022-08-25T08:39:27.571Z,11.25
2022-08-25T08:40:27.619Z,11.25
2022-08-25T08:41:27.042Z,11.25
2022-08-25T08:42:27.986Z,11.25
2022-08-25T08:53:51.145Z,11.25
2022-08-25T08:54:51.999Z,11.25
2022-08-25T08:55:52.997Z,11.25
2022-08-25T08:56:52.000Z,11.25
2022-08-25T08:57:51.927Z,11.25
2022-08-25T08:58:51.998Z,11.25
2022-08-25T10:55:14.648Z,11.25
2022-08-25T10:56:15.577Z,11.25
2022-08-25T10:57:15.544Z,11.25
2022-08-25T10:58:15.510Z,11.25
2022-08-25T10:59:15.467Z,11.25
2022-08-25T11:00:15.441Z,11.25
2022-08-25T11:01:15.400Z,11.25
2022-08-25T11:02:59.452Z,22.50
2022-08-25T11:04:00.416Z,22.50
2022-08-25T11:05:00.459Z,22.50
2022-08-25T11:06:00.369Z,22.50
2022-08-25T11:07:00.357Z,22.50
2022-08-25T11:08:00.338Z,22.50
2022-08-25T11:09:00.326Z,22.50
2022-08-25T11:10:00.320Z,22.50
2022-08-25T11:11:00.295Z,22.50
2022-08-25T11:12:00.296Z,22.50
2022-08-25T11:13:00.309Z,22.50
2022-08-25T11:14:00.264Z,22.50
2022-08-25T11:15:00.246Z,22.50
2022-08-25T11:16:16.495Z,22.50
2022-08-25T11:17:00.270Z,28.12
2022-08-25T11:18:00.219Z,22.50
2022-08-25T11:19:00.196Z,22.50
2022-08-25T11:20:00.202Z,28.12
2022-08-25T11:21:00.181Z,28.12
2022-08-25T11:22:00.161Z,28.12
2022-08-25T11:23:00.244Z,28.12
2022-08-25T11:24:00.152Z,28.12
2022-08-25T11:25:00.161Z,28.12
2022-08-25T11:26:00.114Z,28.12
2022-08-25T11:27:00.100Z,28.12
2022-08-25T11:28:00.225Z,28.12
2022-08-25T11:29:00.077Z,28.12
2022-08-25T11:30:00.093Z,28.12
2022-08-25T11:31:00.086Z,28.12
2022-08-25T11:32:00.068Z,28.12
2022-08-25T11:33:00.117Z,28.12
2022-08-25T11:34:00.027Z,28.12
2022-08-25T11:35:00.002Z,28.12
2022-08-25T11:36:00.015Z,28.12
2022-08-25T11:36:59.976Z,28.12
2022-08-25T11:37:59.997Z,28.12
2022-08-25T11:38:59.955Z,28.12
2022-08-25T11:39:59.969Z,28.12
2022-08-25T11:40:59.932Z,28.12
2022-08-25T11:41:59.948Z,28.12
2022-08-25T11:42:59.912Z,28.12
2022-08-25T11:43:59.888Z,28.12
2022-08-25T11:44:59.884Z,28.12
2022-08-25T11:45:59.933Z,28.12
2022-08-25T11:46:59.852Z,28.12
2022-08-25T11:47:59.923Z,28.12
2022-08-25T11:48:59.836Z,28.12
2022-08-25T11:49:59.819Z,28.12
2022-08-25T11:50:59.804Z,28.12
2022-08-25T11:52:03.159Z,28.12
2022-08-25T11:52:59.783Z,28.12
2022-08-25T11:53:59.832Z,28.12
2022-08-25T11:54:59.767Z,28.12
2022-08-25T11:55:59.746Z,16.88
2022-08-25T11:56:59.735Z,16.88
2022-08-25T11:57:59.732Z,16.88
2022-08-25T11:58:59.721Z,16.88
2022-08-25T11:59:59.722Z,16.88
2022-08-25T12:00:58.955Z,16.88
2022-08-25T12:01:59.672Z,16.88
2022-08-25T12:03:01.692Z,16.88
2022-08-25T12:03:59.737Z,16.88
2022-08-25T12:04:59.727Z,16.88
2022-08-25T12:05:59.652Z,16.88
2022-08-25T12:06:59.618Z,16.88
2022-08-25T12:07:59.647Z,16.88
2022-08-25T12:08:59.715Z,22.50
2022-08-25T12:09:59.571Z,22.50
2022-08-25T12:10:59.568Z,22.50
2022-08-25T12:11:59.558Z,22.50
2022-08-25T12:12:59.537Z,22.50
2022-08-25T12:13:59.520Z,22.50
2022-08-25T12:14:59.517Z,22.50
2022-08-25T12:15:59.491Z,22.50
2022-08-25T12:16:59.539Z,22.50
2022-08-25T12:17:59.676Z,22.50
2022-08-25T12:18:59.978Z,22.50
2022-08-25T12:19:59.455Z,22.50
2022-08-25T12:20:59.445Z,22.50
2022-08-25T12:21:59.432Z,22.50
2022-08-25T12:22:59.412Z,22.50
2022-08-25T12:23:59.435Z,22.50
2022-08-25T12:24:59.393Z,22.50
2022-08-25T12:25:59.378Z,22.50
2022-08-25T12:26:59.361Z,22.50
2022-08-25T12:27:59.366Z,22.50
2022-08-25T12:28:59.333Z,22.50
2022-08-25T12:29:59.371Z,22.50
2022-08-25T12:30:59.379Z,22.50
2022-08-25T12:32:04.622Z,22.50
2022-08-25T12:32:59.293Z,22.50
2022-08-25T12:33:59.270Z,22.50
2022-08-25T12:34:59.263Z,22.50
2022-08-25T12:35:59.384Z,22.50
2022-08-25T12:36:59.232Z,22.50
2022-08-25T12:37:59.381Z,22.50
2022-08-25T12:38:59.207Z,22.50
2022-08-25T12:39:59.249Z,22.50
2022-08-25T12:40:59.187Z,28.12
2022-08-25T12:41:59.261Z,28.12
2022-08-25T12:42:59.157Z,28.12
2022-08-25T12:43:59.164Z,22.50
2022-08-25T12:44:59.137Z,28.12
2022-08-25T12:45:59.189Z,28.12
2022-08-25T12:46:59.104Z,28.12
2022-08-25T12:47:59.119Z,28.12
2022-08-25T12:48:59.088Z,28.12
2022-08-25T12:49:59.121Z,28.12
2022-08-25T12:50:59.058Z,28.12
2022-08-25T12:51:59.244Z,28.12
2022-08-25T12:52:59.041Z,33.75
2022-08-25T12:53:59.034Z,33.75
2022-08-25T12:54:59.009Z,33.75
2022-08-25T12:55:58.995Z,33.75
2022-08-25T12:56:58.983Z,33.75
2022-08-25T12:57:58.966Z,33.75
2022-08-25T12:59:00.137Z,39.38
2022-08-25T12:59:58.963Z,39.38
2022-08-25T13:01:01.612Z,39.38
2022-08-25T13:01:58.987Z,39.38
2022-08-25T13:02:59.006Z,39.38
2022-08-25T13:03:58.899Z,39.38
2022-08-25T13:04:58.883Z,45.00
2022-08-25T13:05:58.882Z,45.00
2022-08-25T13:06:58.859Z,45.00
2022-08-25T13:07:58.841Z,45.00
2022-08-25T13:08:58.844Z,45.00
2022-08-25T13:09:58.840Z,45.00
2022-08-25T13:10:58.816Z,45.00
2022-08-25T13:11:58.805Z,50.62
2022-08-25T13:12:58.789Z,50.62
2022-08-25T13:13:58.767Z,5.62
2022-08-25T13:14:58.754Z,0.00
2022-08-25T13:15:58.750Z,0.00
2022-08-25T13:16:58.788Z,0.00
2022-08-25T13:17:58.777Z,0.00
2022-08-25T13:18:58.700Z,0.00
2022-08-25T13:19:58.692Z,0.00
2022-08-25T13:20:58.696Z,0.00
2022-08-25T13:21:58.666Z,0.00
2022-08-25T13:22:58.686Z,0.00
2022-08-25T13:24:01.620Z,0.00
2022-08-25T13:25:58.643Z,0.00
2022-08-25T13:26:58.600Z,0.00
2022-08-25T13:27:58.588Z,0.00
2022-08-25T13:28:58.583Z,0.00
2022-08-25T13:29:58.601Z,0.00
2022-08-25T13:30:58.554Z,0.00
2022-08-25T13:31:58.582Z,0.00
2022-08-25T13:32:58.548Z,0.00
2022-08-25T13:33:58.517Z,0.00
2022-08-25T13:34:58.505Z,0.00
2022-08-25T13:35:58.542Z,0.00
2022-08-25T13:36:58.479Z,0.00
2022-08-25T13:37:58.466Z,0.00
2022-08-25T13:38:58.449Z,0.00
2022-08-25T13:39:58.825Z,0.00
2022-08-25T13:40:58.434Z,0.00
2022-08-25T13:41:58.437Z,0.00
2022-08-25T13:42:58.405Z,0.00
2022-08-25T13:44:00.767Z,0.00
2022-08-25T13:44:58.375Z,0.00
2022-08-25T13:45:58.386Z,0.00
2022-08-25T13:46:58.357Z,0.00
2022-08-25T13:47:58.359Z,0.00
2022-08-25T13:48:58.334Z,0.00
2022-08-25T13:49:59.242Z,0.00
2022-08-25T13:50:58.296Z,0.00
2022-08-25T13:51:58.295Z,0.00
2022-08-25T13:52:58.281Z,0.00
2022-08-25T13:54:00.037Z,0.00
2022-08-25T13:54:58.279Z,0.00
2022-08-25T13:55:58.285Z,0.00
2022-08-25T13:56:58.235Z,0.00
2022-08-25T13:57:58.213Z,0.00
2022-08-25T13:58:58.242Z,0.00
2022-08-25T13:59:58.239Z,0.00
2022-08-25T14:00:59.562Z,0.00
2022-08-25T14:01:58.323Z,0.00
2022-08-25T14:02:58.305Z,0.00
2022-08-25T14:04:01.119Z,0.00
2022-08-25T14:04:58.132Z,0.00
2022-08-25T14:05:58.126Z,0.00
2022-08-25T14:06:58.105Z,0.00
2022-08-25T14:08:15.871Z,0.00
2022-08-25T14:08:58.089Z,0.00
2022-08-25T14:09:58.084Z,0.00
2022-08-25T14:10:58.049Z,0.00
2022-08-25T14:11:58.080Z,0.00
2022-08-25T14:13:00.909Z,0.00
2022-08-25T14:13:58.016Z,0.00
2022-08-25T14:14:58.019Z,0.00
2022-08-25T14:15:58.032Z,0.00
2022-08-25T14:16:58.062Z,0.00
2022-08-25T14:17:57.996Z,0.00
2022-08-25T14:18:58.727Z,0.00
2022-08-25T14:19:57.942Z,0.00
2022-08-25T14:20:57.984Z,0.00
2022-08-25T14:21:57.923Z,0.00
2022-08-25T14:22:58.254Z,0.00
2022-08-25T14:23:57.931Z,0.00
2022-08-25T14:24:57.887Z,0.00
2022-08-25T14:25:57.880Z,0.00
2022-08-25T14:26:57.860Z,0.00
2022-08-25T14:28:13.761Z,0.00
2022-08-25T14:28:57.844Z,0.00
2022-08-25T14:29:57.829Z,0.00
2022-08-25T14:30:57.804Z,0.00
2022-08-25T14:31:57.836Z,0.00
2022-08-25T14:32:57.790Z,0.00
2022-08-25T14:33:57.774Z,0.00
2022-08-25T14:34:57.766Z,0.00
2022-08-25T14:35:57.771Z,0.00
2022-08-25T14:36:57.737Z,0.00
2022-08-25T14:37:57.719Z,0.00
2022-08-25T14:38:57.712Z,0.00
2022-08-25T14:39:57.715Z,0.00
2022-08-25T14:40:59.020Z,0.00
2022-08-25T14:41:57.707Z,0.00
2022-08-25T14:42:57.660Z,0.00
2022-08-25T14:43:57.648Z,0.00
2022-08-25T14:44:57.641Z,0.00
2022-08-25T14:45:57.707Z,0.00
2022-08-25T14:46:57.614Z,0.00
2022-08-25T14:48:01.906Z,0.00
2022-08-25T14:48:57.588Z,0.00
2022-08-25T14:49:57.571Z,0.00
2022-08-25T14:50:57.555Z,0.00
2022-08-25T14:51:57.548Z,0.00
2022-08-25T14:52:58.232Z,0.00
2022-08-25T14:53:57.530Z,0.00
2022-08-25T14:54:57.512Z,0.00
2022-08-25T14:55:59.051Z,0.00
2022-08-25T14:56:57.488Z,0.00
2022-08-25T14:57:57.492Z,0.00
2022-08-25T14:58:57.459Z,0.00
2022-08-25T14:59:57.475Z,0.00
2022-08-25T15:00:57.575Z,0.00
2022-08-25T15:01:57.427Z,0.00
2022-08-25T15:02:57.419Z,0.00
2022-08-25T15:03:57.474Z,0.00
2022-08-25T15:04:57.392Z,0.00
2022-08-25T15:05:57.384Z,0.00
2022-08-25T15:06:57.368Z,0.00
2022-08-25T15:07:57.352Z,0.00
2022-08-25T15:08:57.333Z,0.00
2022-08-25T15:09:57.324Z,0.00
2022-08-25T15:10:57.314Z,0.00
2022-08-25T15:11:57.310Z,0.00
2022-08-25T15:12:57.285Z,0.00
2022-08-25T15:13:57.281Z,0.00
2022-08-25T15:14:57.263Z,0.00
2022-08-25T15:15:58.068Z,0.00
2022-08-25T15:16:57.354Z,0.00
2022-08-25T15:18:00.912Z,0.00
2022-08-25T15:18:57.217Z,0.00
2022-08-25T15:19:57.258Z,0.00
2022-08-25T15:20:57.190Z,0.00
2022-08-25T15:21:58.153Z,0.00
2022-08-25T15:22:57.164Z,0.00
2022-08-25T15:23:57.166Z,0.00
2022-08-25T15:24:57.136Z,0.00
2022-08-25T15:25:57.129Z,0.00
2022-08-25T15:26:57.169Z,0.00
2022-08-25T15:27:57.101Z,0.00
2022-08-25T15:28:57.089Z,0.00
2022-08-25T15:29:57.164Z,0.00
2022-08-25T15:30:57.064Z,0.00
2022-08-25T15:31:57.099Z,0.00
2022-08-25T15:32:57.045Z,0.00
2022-08-25T15:33:57.026Z,0.00
2022-08-25T15:34:57.013Z,0.00
2022-08-25T15:35:57.010Z,0.00
2022-08-25T15:36:56.990Z,0.00
2022-08-25T15:37:56.973Z,0.00
2022-08-25T15:38:56.965Z,0.00
2022-08-25T15:39:57.076Z,0.00
2022-08-25T15:40:56.938Z,0.00
2022-08-25T15:41:57.214Z,0.00
2022-08-25T15:42:56.925Z,0.00
2022-08-25T15:43:56.900Z,0.00
2022-08-25T15:44:56.889Z,0.00
2022-08-25T15:45:56.877Z,0.00
2022-08-25T15:46:56.916Z,0.00
2022-08-25T15:47:56.861Z,0.00
2022-08-25T15:48:56.846Z,0.00
2022-08-25T15:49:56.830Z,0.00
2022-08-25T15:50:56.828Z,61.88
2022-08-25T15:51:56.808Z,56.25
2022-08-25T15:52:56.789Z,0.00
2022-08-25T15:53:56.809Z,0.00
2022-08-25T15:54:56.764Z,0.00
2022-08-25T15:55:56.760Z,0.00
2022-08-25T15:56:56.785Z,0.00
2022-08-25T15:57:56.738Z,0.00
2022-08-25T15:58:56.723Z,0.00
2022-08-25T15:59:56.736Z,0.00
2022-08-25T16:00:56.866Z,0.00
2022-08-25T16:01:56.728Z,0.00
2022-08-25T16:02:56.667Z,0.00
2022-08-25T16:03:56.660Z,0.00
2022-08-25T16:04:56.642Z,0.00
2022-08-25T16:05:56.662Z,0.00
2022-08-25T16:06:56.616Z,0.00
2022-08-25T16:07:56.605Z,0.00
2022-08-25T16:08:56.595Z,0.00
2022-08-25T16:09:56.589Z,0.00
2022-08-25T16:10:56.569Z,0.00
2022-08-25T16:11:58.982Z,0.00
2022-08-25T16:12:56.561Z,0.00
2022-08-25T16:13:56.539Z,0.00
2022-08-25T16:14:56.519Z,0.00
2022-08-25T16:15:56.519Z,0.00
2022-08-25T16:16:58.253Z,0.00
2022-08-25T16:17:56.502Z,0.00
2022-08-25T16:18:56.470Z,0.00
2022-08-25T16:19:56.457Z,0.00
2022-08-25T16:20:56.447Z,0.00
2022-08-25T16:21:56.439Z,0.00
2022-08-25T16:22:56.421Z,0.00
2022-08-25T16:23:56.422Z,0.00
2022-08-25T16:24:56.397Z,0.00
2022-08-25T16:25:56.383Z,0.00
2022-08-25T16:26:56.768Z,0.00
2022-08-25T16:27:56.363Z,0.00
2022-08-25T16:28:56.345Z,0.00
2022-08-25T16:29:56.342Z,0.00
2022-08-25T16:30:56.325Z,0.00
2022-08-25T16:31:56.791Z,0.00
2022-08-25T16:32:56.293Z,0.00
2022-08-25T16:33:58.320Z,0.00
2022-08-25T16:34:56.270Z,0.00
2022-08-25T16:35:56.266Z,0.00
2022-08-25T16:36:56.251Z,0.00
2022-08-25T16:37:56.240Z,0.00
2022-08-25T16:38:56.223Z,0.00
2022-08-25T16:39:56.244Z,0.00
2022-08-25T16:40:56.195Z,0.00
2022-08-25T16:41:56.192Z,0.00
2022-08-25T16:42:56.173Z,0.00
2022-08-25T16:43:56.161Z,0.00
2022-08-25T16:44:56.145Z,0.00
2022-08-25T16:45:56.136Z,0.00
2022-08-25T16:46:56.164Z,0.00
2022-08-25T16:47:56.116Z,0.00
2022-08-25T16:48:56.097Z,0.00
2022-08-25T16:49:56.084Z,0.00
2022-08-25T16:50:56.072Z,0.00
2022-08-25T16:51:57.738Z,0.00
2022-08-25T16:52:56.047Z,0.00
2022-08-25T16:53:56.043Z,0.00
2022-08-25T16:54:56.023Z,0.00
2022-08-25T16:55:56.061Z,0.00
2022-08-25T16:56:55.995Z,0.00
2022-08-25T16:57:55.989Z,0.00
2022-08-25T16:58:55.974Z,0.00
2022-08-25T16:59:55.967Z,0.00
2022-08-25T17:00:56.027Z,0.00
2022-08-25T17:01:56.000Z,0.00
2022-08-25T17:02:55.922Z,0.00
2022-08-25T17:03:55.907Z,0.00
2022-08-25T17:04:55.895Z,0.00
2022-08-25T17:05:55.898Z,0.00
2022-08-25T17:06:55.870Z,0.00
2022-08-25T17:07:55.857Z,0.00
2022-08-25T17:08:55.858Z,0.00
2022-08-25T17:09:55.840Z,0.00
2022-08-25T17:10:55.821Z,0.00
2022-08-25T17:11:55.823Z,0.00
2022-08-25T17:12:55.794Z,0.00
2022-08-25T17:13:55.797Z,0.00
2022-08-25T17:14:55.772Z,0.00
2022-08-25T17:15:55.905Z,0.00
2022-08-25T17:16:55.744Z,0.00
2022-08-25T17:17:55.746Z,0.00
2022-08-25T17:18:55.720Z,0.00
2022-08-25T17:19:55.708Z,0.00
2022-08-25T17:20:55.698Z,0.00
2022-08-25T17:21:55.684Z,0.00
2022-08-25T17:22:55.672Z,0.00
2022-08-25T17:23:55.666Z,0.00
2022-08-25T17:24:59.250Z,0.00
2022-08-25T17:25:55.638Z,0.00
2022-08-25T17:26:55.622Z,0.00
2022-08-25T17:27:55.613Z,0.00
2022-08-25T17:28:55.597Z,0.00
2022-08-25T17:29:55.839Z,0.00
2022-08-25T17:30:55.630Z,0.00
2022-08-25T17:31:55.570Z,0.00
2022-08-25T17:32:55.547Z,0.00
2022-08-25T17:33:55.532Z,0.00
2022-08-25T17:34:55.522Z,0.00
2022-08-25T17:35:55.516Z,0.00
2022-08-25T17:36:56.344Z,0.00
2022-08-25T17:37:55.495Z,0.00
2022-08-25T17:38:55.471Z,0.00
2022-08-25T17:40:02.503Z,0.00
2022-08-25T17:40:55.456Z,0.00
2022-08-25T17:41:55.453Z,0.00
2022-08-25T17:42:55.426Z,0.00
2022-08-25T17:43:55.407Z,0.00
2022-08-25T17:44:55.395Z,0.00
2022-08-25T17:45:55.379Z,0.00
2022-08-25T17:46:55.403Z,0.00
2022-08-25T17:47:55.376Z,0.00
2022-08-25T17:48:55.344Z,0.00
2022-08-25T17:49:55.331Z,0.00
2022-08-25T17:50:55.319Z,0.00
2022-08-25T17:51:55.366Z,0.00
2022-08-25T17:52:55.346Z,0.00
2022-08-25T17:53:55.344Z,0.00
2022-08-25T17:54:55.271Z,0.00
2022-08-25T17:55:55.257Z,0.00
2022-08-25T17:56:55.246Z,0.00
2022-08-25T17:57:55.248Z,0.00
2022-08-25T17:58:55.236Z,0.00
2022-08-25T17:59:55.218Z,0.00
2022-08-25T18:00:55.196Z,0.00
2022-08-25T18:01:55.645Z,0.00
2022-08-25T18:02:55.170Z,0.00
2022-08-25T18:03:55.158Z,0.00
2022-08-25T18:04:55.143Z,0.00
2022-08-25T18:05:55.143Z,0.00
2022-08-25T18:06:55.125Z,0.00
2022-08-25T18:07:55.112Z,0.00
2022-08-25T18:08:59.308Z,0.00
2022-08-25T18:09:55.143Z,0.00
2022-08-25T18:10:55.126Z,0.00
2022-08-25T18:11:55.130Z,0.00
2022-08-25T18:12:55.096Z,0.00
2022-08-25T18:13:55.085Z,0.00
2022-08-25T18:14:55.103Z,0.00
2022-08-25T18:15:55.065Z,0.00
2022-08-25T18:16:55.053Z,0.00
2022-08-25T18:17:55.047Z,0.00
2022-08-25T18:18:55.026Z,0.00
2022-08-25T18:19:55.011Z,0.00
2022-08-25T18:20:54.999Z,0.00
2022-08-25T18:21:54.989Z,0.00
2022-08-25T18:22:54.977Z,0.00
2022-08-25T18:23:54.928Z,0.00
2022-08-25T18:24:54.895Z,0.00
2022-08-25T18:26:01.055Z,0.00
2022-08-25T18:26:54.886Z,0.00
2022-08-25T18:27:54.858Z,0.00
2022-08-25T18:28:54.846Z,0.00
2022-08-25T18:29:54.842Z,0.00
2022-08-25T18:30:54.843Z,0.00
2022-08-25T18:31:58.340Z,0.00
2022-08-25T18:32:54.820Z,0.00
2022-08-25T18:33:54.792Z,0.00
2022-08-25T18:34:54.773Z,0.00
2022-08-25T18:35:54.769Z,0.00
2022-08-25T18:36:54.755Z,0.00
2022-08-25T18:37:54.734Z,0.00
2022-08-25T18:38:58.129Z,0.00
2022-08-25T18:39:54.747Z,0.00
2022-08-25T18:40:54.713Z,0.00
2022-08-25T18:41:54.736Z,0.00
2022-08-25T18:42:54.676Z,0.00
2022-08-25T18:43:54.664Z,0.00
2022-08-25T18:44:54.651Z,0.00
2022-08-25T18:45:54.775Z,0.00
2022-08-25T18:46:54.626Z,0.00
2022-08-25T18:47:54.628Z,0.00
2022-08-25T18:48:54.607Z,0.00
2022-08-25T18:49:54.591Z,0.00
2022-08-25T18:50:54.573Z,0.00
2022-08-25T18:51:54.563Z,0.00
2022-08-25T18:52:55.115Z,0.00
2022-08-25T18:54:00.185Z,0.00
2022-08-25T18:54:54.532Z,0.00
2022-08-25T18:55:54.567Z,0.00
2022-08-25T18:56:54.582Z,0.00
2022-08-25T18:57:54.547Z,0.00
2022-08-25T18:58:54.532Z,0.00
2022-08-25T18:59:54.536Z,0.00
2022-08-25T19:00:54.508Z,0.00
2022-08-25T19:01:54.630Z,0.00
2022-08-25T19:02:54.721Z,0.00
2022-08-25T19:03:54.470Z,0.00
2022-08-25T19:04:54.459Z,0.00
2022-08-25T19:05:57.291Z,0.00
2022-08-25T19:06:54.442Z,0.00
2022-08-25T19:07:54.419Z,0.00
2022-08-25T19:08:54.408Z,0.00
2022-08-25T19:09:54.394Z,0.00
2022-08-25T19:10:54.381Z,0.00
2022-08-25T19:11:54.694Z,0.00
2022-08-25T19:12:54.356Z,0.00
2022-08-25T19:13:54.346Z,0.00
2022-08-25T19:14:54.331Z,0.00
2022-08-25T19:15:54.348Z,0.00
2022-08-25T19:16:54.316Z,0.00
2022-08-25T19:17:54.310Z,0.00
2022-08-25T19:18:54.286Z,0.00
2022-08-25T19:19:54.272Z,0.00
2022-08-25T19:20:54.257Z,0.00
2022-08-25T19:21:54.251Z,0.00
2022-08-25T19:22:54.237Z,0.00
2022-08-25T19:23:54.231Z,0.00
2022-08-25T19:24:54.221Z,0.00
2022-08-25T19:25:54.199Z,0.00
2022-08-25T19:26:54.858Z,0.00
2022-08-25T19:27:54.175Z,0.00
2022-08-25T19:28:54.161Z,0.00
2022-08-25T19:29:54.161Z,0.00
2022-08-25T19:30:54.167Z,0.00
2022-08-25T19:31:54.125Z,0.00
2022-08-25T19:32:54.113Z,0.00
2022-08-25T19:33:54.100Z,0.00
2022-08-25T19:34:54.088Z,0.00
2022-08-25T19:35:54.087Z,0.00
2022-08-25T19:36:54.067Z,0.00
2022-08-25T19:37:54.052Z,0.00
2022-08-25T19:38:54.037Z,0.00
2022-08-25T19:39:54.090Z,0.00
2022-08-25T19:40:54.014Z,0.00
2022-08-25T19:41:54.158Z,0.00
2022-08-25T19:42:54.775Z,0.00
2022-08-25T19:43:56.437Z,0.00
2022-08-25T19:44:53.964Z,0.00
2022-08-25T19:45:53.995Z,0.00
2022-08-25T19:46:53.941Z,0.00
2022-08-25T19:47:53.939Z,0.00
2022-08-25T19:48:53.916Z,0.00
2022-08-25T19:50:56.222Z,0.00
2022-08-25T19:51:53.885Z,0.00
2022-08-25T19:52:53.872Z,0.00
2022-08-25T19:53:55.279Z,0.00
2022-08-25T19:54:53.843Z,0.00
2022-08-25T19:55:53.834Z,0.00
2022-08-25T19:56:55.469Z,0.00
2022-08-25T19:57:53.806Z,0.00
2022-08-25T19:58:53.794Z,0.00
2022-08-25T19:59:53.793Z,0.00
2022-08-25T20:00:53.769Z,0.00
2022-08-25T20:01:53.840Z,0.00
2022-08-25T20:02:53.810Z,0.00
2022-08-25T20:03:53.732Z,0.00
2022-08-25T20:04:53.715Z,0.00
2022-08-25T20:05:53.719Z,0.00
2022-08-25T20:06:55.436Z,0.00
2022-08-25T20:07:53.682Z,0.00
2022-08-25T20:08:58.805Z,0.00
2022-08-25T20:09:53.665Z,0.00
2022-08-25T20:10:53.642Z,0.00
2022-08-25T20:11:53.644Z,0.00
2022-08-25T20:12:53.623Z,0.00
2022-08-25T20:13:53.608Z,0.00
2022-08-25T20:14:53.595Z,0.00
2022-08-25T20:15:53.673Z,0.00
2022-08-25T20:16:53.580Z,0.00
2022-08-25T20:17:56.457Z,0.00
2022-08-25T20:18:53.542Z,0.00
2022-08-25T20:19:53.541Z,0.00
2022-08-25T20:20:53.521Z,0.00
2022-08-25T20:21:53.510Z,0.00
2022-08-25T20:22:53.493Z,0.00
2022-08-25T20:23:53.492Z,0.00
2022-08-25T20:24:56.744Z,0.00
2022-08-25T20:25:53.458Z,0.00
2022-08-25T20:26:53.447Z,0.00
2022-08-25T20:27:53.434Z,0.00
2022-08-25T20:28:53.433Z,0.00
2022-08-25T20:29:53.432Z,0.00
2022-08-25T20:30:53.413Z,0.00
2022-08-25T20:31:53.389Z,0.00
2022-08-25T20:32:53.375Z,0.00
2022-08-25T20:33:54.753Z,0.00
2022-08-25T20:34:53.366Z,0.00
2022-08-25T20:35:53.408Z,0.00
2022-08-25T20:36:53.319Z,0.00
2022-08-25T20:37:53.309Z,0.00
2022-08-25T20:38:53.311Z,0.00
2022-08-25T20:39:53.309Z,0.00
2022-08-25T20:40:53.274Z,0.00
2022-08-25T20:41:53.267Z,0.00
2022-08-25T20:42:53.253Z,0.00
2022-08-25T20:43:53.233Z,0.00
2022-08-25T20:44:53.224Z,0.00
2022-08-25T20:45:53.245Z,0.00
2022-08-25T20:46:54.692Z,0.00
2022-08-25T20:47:53.193Z,0.00
2022-08-25T20:48:53.174Z,0.00
2022-08-25T20:49:53.161Z,0.00
2022-08-25T20:50:57.280Z,0.00
2022-08-25T20:51:53.137Z,0.00
2022-08-25T20:52:53.124Z,0.00
2022-08-25T20:53:53.125Z,0.00
2022-08-25T20:54:53.100Z,0.00
2022-08-25T20:55:53.088Z,0.00
2022-08-25T20:56:53.074Z,0.00
2022-08-25T20:57:53.064Z,0.00
2022-08-25T20:58:53.053Z,0.00
2022-08-25T20:59:53.069Z,0.00
2022-08-25T21:00:53.025Z,0.00
2022-08-25T21:01:53.067Z,0.00
2022-08-25T21:02:53.054Z,0.00
2022-08-25T21:03:52.993Z,0.00
2022-08-25T21:04:52.977Z,0.00
2022-08-25T21:05:54.255Z,0.00
2022-08-25T21:06:52.952Z,0.00
2022-08-25T21:07:52.939Z,0.00
2022-08-25T21:08:52.931Z,0.00
2022-08-25T21:09:52.922Z,0.00
2022-08-25T21:10:52.904Z,0.00
2022-08-25T21:11:52.901Z,0.00
2022-08-25T21:12:53.223Z,0.00
2022-08-25T21:13:52.870Z,0.00
2022-08-25T21:14:52.856Z,0.00
2022-08-25T21:15:52.862Z,0.00
2022-08-25T21:16:52.903Z,0.00
2022-08-25T21:17:52.838Z,0.00
2022-08-25T21:18:52.805Z,0.00
2022-08-25T21:19:52.794Z,0.00
2022-08-25T21:20:52.782Z,0.00
2022-08-25T21:21:52.772Z,0.00
2022-08-25T21:22:53.327Z,0.00
2022-08-25T21:23:52.753Z,0.00
2022-08-25T21:24:52.733Z,0.00
2022-08-25T21:25:52.720Z,0.00
2022-08-25T21:26:52.708Z,0.00
2022-08-25T21:27:52.695Z,0.00
2022-08-25T21:28:52.684Z,0.00
2022-08-25T21:29:55.180Z,0.00
2022-08-25T21:30:52.693Z,0.00
2022-08-25T21:31:52.643Z,0.00
2022-08-25T21:32:53.928Z,0.00
2022-08-25T21:33:52.622Z,0.00
2022-08-25T21:34:52.608Z,0.00
2022-08-25T21:35:52.614Z,0.00
2022-08-25T21:36:52.584Z,0.00
2022-08-25T21:37:53.560Z,0.00
2022-08-25T21:38:52.562Z,0.00
2022-08-25T21:39:52.609Z,0.00
2022-08-25T21:40:52.544Z,0.00
2022-08-25T21:41:52.535Z,0.00
2022-08-25T21:42:52.513Z,0.00
2022-08-25T21:43:52.499Z,0.00
2022-08-25T21:44:52.489Z,0.00
2022-08-25T21:45:52.539Z,0.00
2022-08-25T21:46:53.792Z,0.00
2022-08-25T21:47:52.563Z,0.00
2022-08-25T21:48:52.442Z,0.00
2022-08-25T21:49:52.424Z,0.00
2022-08-25T21:50:52.413Z,0.00
2022-08-25T21:51:59.833Z,0.00
2022-08-25T21:52:54.400Z,0.00
2022-08-25T21:53:52.382Z,0.00
2022-08-25T21:54:52.365Z,0.00
2022-08-25T21:55:52.350Z,0.00
2022-08-25T21:56:52.343Z,0.00
2022-08-25T21:57:52.326Z,0.00
2022-08-25T21:58:52.313Z,0.00
2022-08-25T21:59:52.314Z,0.00
2022-08-25T22:00:52.323Z,0.00
2022-08-25T22:01:52.275Z,0.00
2022-08-25T22:02:52.306Z,0.00
2022-08-25T22:03:52.253Z,0.00
2022-08-25T22:04:52.242Z,0.00
2022-08-25T22:05:52.239Z,0.00
2022-08-25T22:06:52.214Z,0.00
2022-08-25T22:07:52.274Z,0.00
2022-08-25T22:08:52.190Z,0.00
2022-08-25T22:09:52.178Z,0.00
2022-08-25T22:10:52.163Z,0.00
2022-08-25T22:11:52.167Z,0.00
2022-08-25T22:12:52.139Z,0.00
2022-08-25T22:13:52.127Z,0.00
2022-08-25T22:14:52.115Z,0.00
2022-08-25T22:15:52.287Z,0.00
2022-08-25T22:16:52.193Z,0.00
2022-08-25T22:17:52.086Z,0.00
2022-08-25T22:18:52.067Z,0.00
2022-08-25T22:19:53.161Z,0.00
2022-08-25T22:20:52.042Z,0.00
2022-08-25T22:21:52.028Z,0.00
2022-08-25T22:22:52.021Z,0.00
2022-08-25T22:23:52.029Z,0.00
2022-08-25T22:24:51.991Z,0.00
2022-08-25T22:25:51.979Z,0.00
2022-08-25T22:26:51.964Z,0.00
2022-08-25T22:27:56.679Z,0.00
2022-08-25T22:28:51.943Z,0.00
2022-08-25T22:29:51.937Z,0.00
2022-08-25T22:30:51.957Z,0.00
2022-08-25T22:31:52.989Z,0.00
2022-08-25T22:32:51.889Z,0.00
2022-08-25T22:33:51.881Z,0.00
2022-08-25T22:34:51.862Z,0.00
2022-08-25T22:35:55.866Z,0.00
2022-08-25T22:36:51.846Z,0.00
2022-08-25T22:37:51.837Z,0.00
2022-08-25T22:38:51.818Z,0.00
2022-08-25T22:39:51.850Z,0.00
2022-08-25T22:40:51.790Z,0.00
2022-08-25T22:41:51.786Z,0.00
2022-08-25T22:42:51.768Z,0.00
2022-08-25T22:43:51.753Z,0.00
2022-08-25T22:44:51.740Z,0.00
2022-08-25T22:45:51.756Z,0.00
2022-08-25T22:46:51.712Z,0.00
2022-08-25T22:47:51.710Z,0.00
2022-08-25T22:48:51.705Z,0.00
2022-08-25T22:49:51.677Z,0.00
2022-08-25T22:50:51.665Z,0.00
2022-08-25T22:51:51.651Z,0.00
2022-08-25T22:52:51.640Z,0.00
2022-08-25T22:53:51.643Z,0.00
2022-08-25T22:54:51.622Z,0.00
2022-08-25T22:55:52.215Z,0.00
2022-08-25T22:56:51.603Z,0.00
2022-08-25T22:57:51.579Z,0.00
2022-08-25T22:58:52.246Z,0.00
2022-08-25T22:59:51.567Z,0.00
2022-08-25T23:00:51.580Z,0.00
2022-08-25T23:01:51.532Z,0.00
2022-08-25T23:02:51.554Z,0.00
2022-08-25T23:03:51.627Z,0.00
2022-08-25T23:04:51.530Z,0.00
2022-08-25T23:05:51.499Z,0.00
2022-08-25T23:06:51.470Z,0.00
2022-08-25T23:07:51.461Z,0.00
2022-08-25T23:08:51.448Z,0.00
2022-08-25T23:09:51.431Z,0.00
2022-08-25T23:10:51.420Z,0.00
2022-08-25T23:11:51.513Z,0.00
2022-08-25T23:12:51.398Z,0.00
2022-08-25T23:13:51.381Z,0.00
2022-08-25T23:14:51.373Z,0.00
2022-08-25T23:15:51.360Z,0.00
2022-08-25T23:16:51.404Z,0.00
2022-08-25T23:17:51.344Z,0.00
2022-08-25T23:18:51.321Z,0.00
2022-08-25T23:19:51.310Z,0.00
2022-08-25T23:20:51.298Z,0.00
2022-08-25T23:21:51.290Z,0.00
2022-08-25T23:22:51.274Z,0.00
2022-08-25T23:23:51.270Z,0.00
2022-08-25T23:24:51.251Z,0.00
2022-08-25T23:25:51.238Z,0.00
2022-08-25T23:26:51.349Z,0.00
2022-08-25T23:27:51.640Z,0.00
2022-08-25T23:28:51.199Z,0.00
2022-08-25T23:29:51.197Z,0.00
2022-08-25T23:30:59.319Z,0.00
2022-08-25T23:31:51.198Z,0.00
2022-08-25T23:32:51.150Z,0.00
2022-08-25T23:33:51.139Z,0.00
2022-08-25T23:34:51.127Z,0.00
2022-08-25T23:35:51.129Z,0.00
2022-08-25T23:36:51.115Z,0.00
2022-08-25T23:37:51.088Z,0.00
2022-08-25T23:38:51.543Z,0.00
2022-08-25T23:39:51.136Z,0.00
2022-08-25T23:40:51.051Z,0.00
2022-08-25T23:41:51.061Z,0.00
2022-08-25T23:42:51.030Z,0.00
2022-08-25T23:43:51.021Z,0.00
2022-08-25T23:44:51.026Z,0.00
2022-08-25T23:45:51.019Z,0.00
2022-08-25T23:46:50.980Z,0.00
2022-08-25T23:47:50.984Z,0.00
2022-08-25T23:48:50.962Z,0.00
2022-08-25T23:49:51.914Z,0.00
2022-08-25T23:50:54.228Z,0.00
2022-08-25T23:51:51.708Z,0.00
2022-08-25T23:52:50.905Z,0.00
2022-08-25T23:53:50.900Z,0.00
2022-08-25T23:54:51.439Z,0.00
2022-08-25T23:55:51.232Z,0.00